sensor_id;sensor_type;location;lat;lon;timestamp;pressure;altitude;pressure_sealevel;temperature;humidity
12963;BME280;6546;49.882;8.666;2023-04-23T00:00:12;99345.53;;;14.30;77.01
12963;BME280;6546;49.882;8.666;2023-04-23T00:02:43;99346.53;;;14.29;77.18
12963;BME280;6546;49.882;8.666;2023-04-23T00:05:12;99350.75;;;14.30;76.85
12963;BME280;6546;49.882;8.666;2023-04-23T00:07:41;99341.53;;;14.27;77.31
12963;BME280;6546;49.882;8.666;2023-04-23T00:10:08;99341.72;;;14.26;76.89
12963;BME280;6546;49.882;8.666;2023-04-23T00:12:35;99352.34;;;14.31;76.81
12963;BME280;6546;49.882;8.666;2023-04-23T00:15:04;99348.34;;;14.28;77.19
12963;BME280;6546;49.882;8.666;2023-04-23T00:17:31;99351.56;;;14.30;76.85
12963;BME280;6546;49.882;8.666;2023-04-23T00:19:58;99330.94;;;14.15;77.09
12963;BME280;6546;49.882;8.666;2023-04-23T00:22:26;99332.94;;;14.13;77.23
12963;BME280;6546;49.882;8.666;2023-04-23T00:24:52;99348.56;;;14.20;77.20
12963;BME280;6546;49.882;8.666;2023-04-23T00:27:19;99351.56;;;14.17;77.06
12963;BME280;6546;49.882;8.666;2023-04-23T00:29:46;99346.94;;;14.19;77.37
12963;BME280;6546;49.882;8.666;2023-04-23T00:32:12;99340.97;;;14.05;77.38
12963;BME280;6546;49.882;8.666;2023-04-23T00:34:40;99349.38;;;14.14;77.87
12963;BME280;6546;49.882;8.666;2023-04-23T00:37:06;99353.38;;;14.10;77.96
12963;BME280;6546;49.882;8.666;2023-04-23T00:39:34;99350.78;;;14.10;77.76
12963;BME280;6546;49.882;8.666;2023-04-23T00:42:03;99351.41;;;14.05;78.13
12963;BME280;6546;49.882;8.666;2023-04-23T00:44:35;99351.78;;;14.09;77.85
12963;BME280;6546;49.882;8.666;2023-04-23T00:47:02;99355.19;;;14.09;78.40
12963;BME280;6546;49.882;8.666;2023-04-23T00:49:29;99351.19;;;14.07;78.30
12963;BME280;6546;49.882;8.666;2023-04-23T00:51:56;99348.41;;;14.02;78.54
12963;BME280;6546;49.882;8.666;2023-04-23T00:54:23;99353.19;;;14.05;78.53
12963;BME280;6546;49.882;8.666;2023-04-23T00:56:51;99339.78;;;14.01;78.56
12963;BME280;6546;49.882;8.666;2023-04-23T00:59:19;99350.19;;;14.08;78.57
12963;BME280;6546;49.882;8.666;2023-04-23T01:01:46;99347.38;;;14.03;78.49
12963;BME280;6546;49.882;8.666;2023-04-23T01:04:13;99355.41;;;14.01;78.72
12963;BME280;6546;49.882;8.666;2023-04-23T01:06:41;99345.78;;;13.95;78.64
12963;BME280;6546;49.882;8.666;2023-04-23T01:09:09;99347.38;;;13.96;79.05
12963;BME280;6546;49.882;8.666;2023-04-23T01:11:38;99346.56;;;13.96;78.97
12963;BME280;6546;49.882;8.666;2023-04-23T01:14:07;99343.97;;;13.96;78.82
12963;BME280;6546;49.882;8.666;2023-04-23T01:16:34;99358.41;;;13.98;78.90
12963;BME280;6546;49.882;8.666;2023-04-23T01:19:00;99349.97;;;13.96;79.08
12963;BME280;6546;49.882;8.666;2023-04-23T01:21:27;99346.78;;;13.94;79.18
12963;BME280;6546;49.882;8.666;2023-04-23T01:23:57;99347.78;;;13.93;79.42
12963;BME280;6546;49.882;8.666;2023-04-23T01:26:23;99349.38;;;13.88;79.18
12963;BME280;6546;49.882;8.666;2023-04-23T01:28:51;99353.38;;;13.90;79.31
12963;BME280;6546;49.882;8.666;2023-04-23T01:31:18;99347.38;;;13.83;79.67
12963;BME280;6546;49.882;8.666;2023-04-23T01:33:45;99348.19;;;13.84;79.53
12963;BME280;6546;49.882;8.666;2023-04-23T01:36:12;99349.56;;;13.86;79.39
12963;BME280;6546;49.882;8.666;2023-04-23T01:38:39;99366.78;;;13.81;79.50
12963;BME280;6546;49.882;8.666;2023-04-23T01:41:07;99373.00;;;13.80;79.72
12963;BME280;6546;49.882;8.666;2023-04-23T01:43:35;99367.78;;;13.80;79.54
12963;BME280;6546;49.882;8.666;2023-04-23T01:46:01;99363.59;;;13.85;79.61
12963;BME280;6546;49.882;8.666;2023-04-23T01:48:28;99379.00;;;13.74;79.86
12963;BME280;6546;49.882;8.666;2023-04-23T01:50:55;99377.81;;;13.76;79.88
12963;BME280;6546;49.882;8.666;2023-04-23T01:53:22;99378.22;;;13.73;79.86
12963;BME280;6546;49.882;8.666;2023-04-23T01:55:50;99372.63;;;13.70;80.09
12963;BME280;6546;49.882;8.666;2023-04-23T01:58:19;99377.41;;;13.73;80.38
12963;BME280;6546;49.882;8.666;2023-04-23T02:00:47;99378.41;;;13.72;80.40
12963;BME280;6546;49.882;8.666;2023-04-23T02:03:14;99374.19;;;13.71;80.43
12963;BME280;6546;49.882;8.666;2023-04-23T02:05:41;99380.22;;;13.78;80.53
12963;BME280;6546;49.882;8.666;2023-04-23T02:08:08;99371.19;;;13.74;80.00
12963;BME280;6546;49.882;8.666;2023-04-23T02:10:35;99380.81;;;13.73;79.84
12963;BME280;6546;49.882;8.666;2023-04-23T02:13:02;99365.00;;;13.61;80.04
12963;BME280;6546;49.882;8.666;2023-04-23T02:15:31;99390.59;;;13.71;80.23
12963;BME280;6546;49.882;8.666;2023-04-23T02:17:58;99386.22;;;13.72;80.26
12963;BME280;6546;49.882;8.666;2023-04-23T02:20:25;99392.22;;;13.72;79.99
12963;BME280;6546;49.882;8.666;2023-04-23T02:22:51;99386.81;;;13.74;80.06
12963;BME280;6546;49.882;8.666;2023-04-23T02:25:18;99393.63;;;13.75;80.05
12963;BME280;6546;49.882;8.666;2023-04-23T02:27:46;99389.41;;;13.67;79.89
12963;BME280;6546;49.882;8.666;2023-04-23T02:30:13;99388.81;;;13.72;79.90
12963;BME280;6546;49.882;8.666;2023-04-23T02:32:41;99386.59;;;13.68;80.06
12963;BME280;6546;49.882;8.666;2023-04-23T02:35:08;99385.00;;;13.67;80.11
12963;BME280;6546;49.882;8.666;2023-04-23T02:37:39;99394.41;;;13.68;79.96
12963;BME280;6546;49.882;8.666;2023-04-23T02:40:07;99387.59;;;13.67;80.23
12963;BME280;6546;49.882;8.666;2023-04-23T02:42:34;99395.63;;;13.66;79.99
12963;BME280;6546;49.882;8.666;2023-04-23T02:45:00;99394.00;;;13.65;80.17
12963;BME280;6546;49.882;8.666;2023-04-23T02:47:27;99395.81;;;13.64;79.91
12963;BME280;6546;49.882;8.666;2023-04-23T02:49:56;99408.63;;;13.66;79.98
12963;BME280;6546;49.882;8.666;2023-04-23T02:52:23;99399.03;;;13.66;79.77
12963;BME280;6546;49.882;8.666;2023-04-23T02:54:50;99402.63;;;13.65;79.86
12963;BME280;6546;49.882;8.666;2023-04-23T02:57:16;99406.63;;;13.68;79.86
12963;BME280;6546;49.882;8.666;2023-04-23T02:59:43;99410.03;;;13.68;79.64
12963;BME280;6546;49.882;8.666;2023-04-23T03:02:10;99413.03;;;13.65;79.80
12963;BME280;6546;49.882;8.666;2023-04-23T03:04:37;99413.41;;;13.56;79.79
12963;BME280;6546;49.882;8.666;2023-04-23T03:07:05;99405.78;;;13.54;79.88
12963;BME280;6546;49.882;8.666;2023-04-23T03:09:32;99407.81;;;13.59;79.87
12963;BME280;6546;49.882;8.666;2023-04-23T03:11:58;99410.19;;;13.60;79.56
12963;BME280;6546;49.882;8.666;2023-04-23T03:14:26;99409.00;;;13.56;79.80
12963;BME280;6546;49.882;8.666;2023-04-23T03:16:53;99409.41;;;13.53;80.27
12963;BME280;6546;49.882;8.666;2023-04-23T03:19:20;99407.41;;;13.55;80.27
12963;BME280;6546;49.882;8.666;2023-04-23T03:21:46;99405.38;;;13.57;80.26
12963;BME280;6546;49.882;8.666;2023-04-23T03:24:15;99410.00;;;13.55;80.11
12963;BME280;6546;49.882;8.666;2023-04-23T03:26:43;99402.78;;;13.57;80.30
12963;BME280;6546;49.882;8.666;2023-04-23T03:29:10;99405.38;;;13.57;80.09
12963;BME280;6546;49.882;8.666;2023-04-23T03:31:37;99411.63;;;13.56;80.26
12963;BME280;6546;49.882;8.666;2023-04-23T03:34:04;99413.59;;;13.54;80.04
12963;BME280;6546;49.882;8.666;2023-04-23T03:36:30;99410.81;;;13.56;80.05
12963;BME280;6546;49.882;8.666;2023-04-23T03:39:00;99406.81;;;13.53;80.28
12963;BME280;6546;49.882;8.666;2023-04-23T03:41:28;99407.81;;;13.59;80.15
12963;BME280;6546;49.882;8.666;2023-04-23T03:43:54;99421.00;;;13.57;80.15
12963;BME280;6546;49.882;8.666;2023-04-23T03:46:21;99417.81;;;13.55;80.14
12963;BME280;6546;49.882;8.666;2023-04-23T03:48:47;99421.81;;;13.58;80.13
12963;BME280;6546;49.882;8.666;2023-04-23T03:51:14;99412.78;;;13.54;80.34
12963;BME280;6546;49.882;8.666;2023-04-23T03:53:40;99415.19;;;13.55;80.48
12963;BME280;6546;49.882;8.666;2023-04-23T03:56:07;99411.78;;;13.55;80.27
12963;BME280;6546;49.882;8.666;2023-04-23T03:58:35;99417.81;;;13.55;80.21
12963;BME280;6546;49.882;8.666;2023-04-23T04:01:02;99418.59;;;13.56;80.24
12963;BME280;6546;49.882;8.666;2023-04-23T04:03:29;99410.59;;;13.57;80.22
12963;BME280;6546;49.882;8.666;2023-04-23T04:05:56;99413.19;;;13.57;80.15
12963;BME280;6546;49.882;8.666;2023-04-23T04:08:22;99410.00;;;13.55;79.95
12963;BME280;6546;49.882;8.666;2023-04-23T04:10:51;99412.59;;;13.55;79.96
12963;BME280;6546;49.882;8.666;2023-04-23T04:13:18;99410.56;;;13.51;80.06
12963;BME280;6546;49.882;8.666;2023-04-23T04:15:46;99404.19;;;13.53;79.98
12963;BME280;6546;49.882;8.666;2023-04-23T04:18:12;99399.78;;;13.54;80.20
12963;BME280;6546;49.882;8.666;2023-04-23T04:20:40;99398.59;;;13.50;79.89
12963;BME280;6546;49.882;8.666;2023-04-23T04:23:08;99402.59;;;13.52;79.78
12963;BME280;6546;49.882;8.666;2023-04-23T04:25:35;99395.75;;;13.45;79.94
12963;BME280;6546;49.882;8.666;2023-04-23T04:28:04;99408.59;;;13.46;79.81
12963;BME280;6546;49.882;8.666;2023-04-23T04:30:32;99404.97;;;13.47;80.10
12963;BME280;6546;49.882;8.666;2023-04-23T04:33:00;99411.78;;;13.48;79.58
12963;BME280;6546;49.882;8.666;2023-04-23T04:35:26;99409.19;;;13.48;79.61
12963;BME280;6546;49.882;8.666;2023-04-23T04:37:53;99410.19;;;13.41;79.95
12963;BME280;6546;49.882;8.666;2023-04-23T04:40:20;99413.78;;;13.46;79.75
12963;BME280;6546;49.882;8.666;2023-04-23T04:42:47;99416.16;;;13.41;79.66
12963;BME280;6546;49.882;8.666;2023-04-23T04:45:13;99419.78;;;13.40;80.04
12963;BME280;6546;49.882;8.666;2023-04-23T04:47:41;99416.75;;;13.37;80.20
12963;BME280;6546;49.882;8.666;2023-04-23T04:50:10;99420.94;;;13.38;80.21
12963;BME280;6546;49.882;8.666;2023-04-23T04:52:37;99415.16;;;13.42;80.03
12963;BME280;6546;49.882;8.666;2023-04-23T04:55:04;99421.34;;;13.41;80.18
12963;BME280;6546;49.882;8.666;2023-04-23T04:57:31;99416.75;;;13.37;79.84
12963;BME280;6546;49.882;8.666;2023-04-23T04:59:57;99418.75;;;13.41;79.71
12963;BME280;6546;49.882;8.666;2023-04-23T05:02:24;99421.34;;;13.41;79.68
12963;BME280;6546;49.882;8.666;2023-04-23T05:04:51;99420.19;;;13.44;79.76
12963;BME280;6546;49.882;8.666;2023-04-23T05:07:19;99419.38;;;13.43;79.75
12963;BME280;6546;49.882;8.666;2023-04-23T05:09:48;99425.78;;;13.47;79.18
12963;BME280;6546;49.882;8.666;2023-04-23T05:12:15;99424.19;;;13.46;78.86
12963;BME280;6546;49.882;8.666;2023-04-23T05:14:41;99419.78;;;13.40;79.40
12963;BME280;6546;49.882;8.666;2023-04-23T05:17:08;99422.97;;;13.42;78.98
12963;BME280;6546;49.882;8.666;2023-04-23T05:19:36;99432.56;;;13.42;78.99
12963;BME280;6546;49.882;8.666;2023-04-23T05:22:02;99429.00;;;13.49;79.00
12963;BME280;6546;49.882;8.666;2023-04-23T05:24:30;99420.22;;;13.57;79.10
12963;BME280;6546;49.882;8.666;2023-04-23T05:26:57;99427.22;;;13.63;78.92
12963;BME280;6546;49.882;8.666;2023-04-23T05:29:23;99438.63;;;13.68;78.57
12963;BME280;6546;49.882;8.666;2023-04-23T05:31:50;99435.47;;;13.73;78.25
12963;BME280;6546;49.882;8.666;2023-04-23T05:34:16;99436.66;;;13.77;77.75
12963;BME280;6546;49.882;8.666;2023-04-23T05:36:43;99433.06;;;13.78;77.90
12963;BME280;6546;49.882;8.666;2023-04-23T05:39:10;99434.06;;;13.84;77.31
12963;BME280;6546;49.882;8.666;2023-04-23T05:41:38;99431.47;;;13.90;76.59
12963;BME280;6546;49.882;8.666;2023-04-23T05:44:05;99433.47;;;13.82;76.76
12963;BME280;6546;49.882;8.666;2023-04-23T05:46:32;99428.25;;;13.82;76.48
12963;BME280;6546;49.882;8.666;2023-04-23T05:48:59;99432.84;;;13.80;76.61
12963;BME280;6546;49.882;8.666;2023-04-23T05:51:26;99425.84;;;13.80;76.65
12963;BME280;6546;49.882;8.666;2023-04-23T05:53:52;99427.88;;;14.24;78.38
12963;BME280;6546;49.882;8.666;2023-04-23T05:56:19;99436.47;;;15.28;74.98
12963;BME280;6546;49.882;8.666;2023-04-23T05:58:47;99431.47;;;17.96;65.22
12963;BME280;6546;49.882;8.666;2023-04-23T06:01:14;99431.09;;;20.60;55.94
12963;BME280;6546;49.882;8.666;2023-04-23T06:03:40;99420.69;;;22.62;47.83
12963;BME280;6546;49.882;8.666;2023-04-23T06:06:09;99432.22;;;24.21;43.48
12963;BME280;6546;49.882;8.666;2023-04-23T06:08:36;99426.75;;;25.55;39.54
12963;BME280;6546;49.882;8.666;2023-04-23T06:11:03;99434.22;;;26.45;36.93
12963;BME280;6546;49.882;8.666;2023-04-23T06:13:30;99427.28;;;27.39;34.21
12963;BME280;6546;49.882;8.666;2023-04-23T06:15:58;99426.63;;;28.17;32.92
12963;BME280;6546;49.882;8.666;2023-04-23T06:18:24;99422.66;;;28.74;31.67
12963;BME280;6546;49.882;8.666;2023-04-23T06:20:52;99434.56;;;29.03;30.30
12963;BME280;6546;49.882;8.666;2023-04-23T06:23:20;99433.25;;;29.64;29.52
12963;BME280;6546;49.882;8.666;2023-04-23T06:25:47;99427.63;;;30.10;28.91
12963;BME280;6546;49.882;8.666;2023-04-23T06:28:14;99429.59;;;30.57;28.16
12963;BME280;6546;49.882;8.666;2023-04-23T06:30:40;99428.91;;;30.91;27.23
12963;BME280;6546;49.882;8.666;2023-04-23T06:33:08;99424.72;;;31.16;26.47
12963;BME280;6546;49.882;8.666;2023-04-23T06:35:35;99417.31;;;31.04;26.86
12963;BME280;6546;49.882;8.666;2023-04-23T06:38:01;99424.59;;;31.21;26.60
12963;BME280;6546;49.882;8.666;2023-04-23T06:40:28;99418.88;;;30.97;27.14
12963;BME280;6546;49.882;8.666;2023-04-23T06:42:55;99420.53;;;30.76;27.00
12963;BME280;6546;49.882;8.666;2023-04-23T06:45:21;99413.38;;;30.54;27.65
12963;BME280;6546;49.882;8.666;2023-04-23T06:47:48;99411.72;;;30.36;27.73
12963;BME280;6546;49.882;8.666;2023-04-23T06:50:16;99404.44;;;29.97;28.51
12963;BME280;6546;49.882;8.666;2023-04-23T06:52:44;99403.00;;;29.46;29.00
12963;BME280;6546;49.882;8.666;2023-04-23T06:55:11;99398.31;;;29.02;30.47
12963;BME280;6546;49.882;8.666;2023-04-23T06:57:37;99400.00;;;28.17;31.24
12963;BME280;6546;49.882;8.666;2023-04-23T07:00:05;99403.28;;;27.62;32.30
12963;BME280;6546;49.882;8.666;2023-04-23T07:02:33;99401.22;;;26.98;34.33
12963;BME280;6546;49.882;8.666;2023-04-23T07:04:59;99394.25;;;26.36;34.88
12963;BME280;6546;49.882;8.666;2023-04-23T07:07:28;99399.66;;;25.92;34.58
12963;BME280;6546;49.882;8.666;2023-04-23T07:09:55;99391.78;;;24.94;38.24
12963;BME280;6546;49.882;8.666;2023-04-23T07:12:22;99394.91;;;23.57;40.81
12963;BME280;6546;49.882;8.666;2023-04-23T07:14:48;99383.81;;;22.72;43.10
12963;BME280;6546;49.882;8.666;2023-04-23T07:17:17;99393.56;;;22.25;45.15
12963;BME280;6546;49.882;8.666;2023-04-23T07:19:44;99385.81;;;21.76;46.16
12963;BME280;6546;49.882;8.666;2023-04-23T07:22:12;99393.38;;;21.41;47.63
12963;BME280;6546;49.882;8.666;2023-04-23T07:24:40;99385.78;;;20.96;48.86
12963;BME280;6546;49.882;8.666;2023-04-23T07:27:06;99387.00;;;20.67;49.63
12963;BME280;6546;49.882;8.666;2023-04-23T07:29:33;99392.53;;;20.49;51.34
12963;BME280;6546;49.882;8.666;2023-04-23T07:32:00;99396.94;;;20.43;51.32
12963;BME280;6546;49.882;8.666;2023-04-23T07:34:26;99383.56;;;20.28;50.97
12963;BME280;6546;49.882;8.666;2023-04-23T07:36:53;99376.06;;;20.20;52.57
12963;BME280;6546;49.882;8.666;2023-04-23T07:39:21;99370.59;;;20.05;50.98
12963;BME280;6546;49.882;8.666;2023-04-23T07:41:49;99382.28;;;19.97;52.50
12963;BME280;6546;49.882;8.666;2023-04-23T07:44:16;99384.69;;;19.99;52.02
12963;BME280;6546;49.882;8.666;2023-04-23T07:46:43;99383.88;;;19.65;52.33
12963;BME280;6546;49.882;8.666;2023-04-23T07:49:09;99379.50;;;19.25;53.33
12963;BME280;6546;49.882;8.666;2023-04-23T07:51:40;99385.28;;;18.99;54.16
12963;BME280;6546;49.882;8.666;2023-04-23T07:54:07;99382.59;;;18.71;54.60
12963;BME280;6546;49.882;8.666;2023-04-23T07:56:34;99387.75;;;18.66;55.93
12963;BME280;6546;49.882;8.666;2023-04-23T07:59:02;99383.44;;;18.60;56.87
12963;BME280;6546;49.882;8.666;2023-04-23T08:01:29;99383.53;;;18.65;57.29
12963;BME280;6546;49.882;8.666;2023-04-23T08:03:57;99379.09;;;18.65;56.24
12963;BME280;6546;49.882;8.666;2023-04-23T08:06:25;99369.88;;;18.63;55.16
12963;BME280;6546;49.882;8.666;2023-04-23T08:08:52;99368.28;;;18.50;56.26
12963;BME280;6546;49.882;8.666;2023-04-23T08:11:20;99373.97;;;18.47;56.77
12963;BME280;6546;49.882;8.666;2023-04-23T08:13:47;99371.00;;;18.55;56.74
12963;BME280;6546;49.882;8.666;2023-04-23T08:16:15;99365.97;;;18.65;55.36
12963;BME280;6546;49.882;8.666;2023-04-23T08:18:41;99359.84;;;18.60;55.36
12963;BME280;6546;49.882;8.666;2023-04-23T08:21:08;99361.22;;;18.51;57.04
12963;BME280;6546;49.882;8.666;2023-04-23T08:23:37;99363.69;;;18.46;56.62
12963;BME280;6546;49.882;8.666;2023-04-23T08:26:03;99364.06;;;18.38;57.27
12963;BME280;6546;49.882;8.666;2023-04-23T08:28:30;99356.41;;;18.36;57.94
12963;BME280;6546;49.882;8.666;2023-04-23T08:30:56;99354.38;;;18.38;56.95
12963;BME280;6546;49.882;8.666;2023-04-23T08:33:24;99355.72;;;18.29;56.57
12963;BME280;6546;49.882;8.666;2023-04-23T08:35:51;99347.63;;;18.42;57.86
12963;BME280;6546;49.882;8.666;2023-04-23T08:38:18;99351.75;;;18.38;57.68
12963;BME280;6546;49.882;8.666;2023-04-23T08:40:45;99342.84;;;18.39;56.97
12963;BME280;6546;49.882;8.666;2023-04-23T08:43:15;99348.66;;;18.41;56.81
12963;BME280;6546;49.882;8.666;2023-04-23T08:45:46;99350.16;;;18.37;57.28
12963;BME280;6546;49.882;8.666;2023-04-23T08:48:13;99347.63;;;18.42;57.36
12963;BME280;6546;49.882;8.666;2023-04-23T08:50:42;99342.97;;;18.56;56.92
12963;BME280;6546;49.882;8.666;2023-04-23T08:53:10;99343.03;;;18.72;57.00
12963;BME280;6546;49.882;8.666;2023-04-23T08:55:36;99344.38;;;18.86;56.59
12963;BME280;6546;49.882;8.666;2023-04-23T08:58:04;99339.97;;;19.04;55.35
12963;BME280;6546;49.882;8.666;2023-04-23T09:00:31;99343.72;;;19.08;54.55
12963;BME280;6546;49.882;8.666;2023-04-23T09:02:59;99343.78;;;19.13;53.70
12963;BME280;6546;49.882;8.666;2023-04-23T09:05:26;99342.09;;;19.18;54.81
12963;BME280;6546;49.882;8.666;2023-04-23T09:07:55;99340.19;;;19.30;53.81
12963;BME280;6546;49.882;8.666;2023-04-23T09:10:23;99337.91;;;19.34;52.34
12963;BME280;6546;49.882;8.666;2023-04-23T09:12:49;99331.91;;;19.22;53.13
12963;BME280;6546;49.882;8.666;2023-04-23T09:15:16;99333.81;;;19.26;54.11
12963;BME280;6546;49.882;8.666;2023-04-23T09:17:44;99320.53;;;19.33;54.90
12963;BME280;6546;49.882;8.666;2023-04-23T09:20:12;99319.09;;;19.54;53.19
12963;BME280;6546;49.882;8.666;2023-04-23T09:22:40;99322.59;;;19.59;51.59
12963;BME280;6546;49.882;8.666;2023-04-23T09:25:10;99319.00;;;19.65;52.09
12963;BME280;6546;49.882;8.666;2023-04-23T09:27:37;99306.34;;;19.62;52.28
12963;BME280;6546;49.882;8.666;2023-04-23T09:30:04;99316.75;;;19.90;52.68
12963;BME280;6546;49.882;8.666;2023-04-23T09:32:33;99316.34;;;19.99;53.00
12963;BME280;6546;49.882;8.666;2023-04-23T09:35:03;99322.09;;;19.79;51.80
12963;BME280;6546;49.882;8.666;2023-04-23T09:37:30;99313.19;;;19.63;53.49
12963;BME280;6546;49.882;8.666;2023-04-23T09:39:57;99305.38;;;19.85;53.51
12963;BME280;6546;49.882;8.666;2023-04-23T09:42:27;99310.38;;;20.03;52.18
12963;BME280;6546;49.882;8.666;2023-04-23T09:44:58;99304.34;;;19.86;50.95
12963;BME280;6546;49.882;8.666;2023-04-23T09:47:25;99295.34;;;19.82;50.23
12963;BME280;6546;49.882;8.666;2023-04-23T09:49:52;99293.16;;;19.74;50.00
12963;BME280;6546;49.882;8.666;2023-04-23T09:52:18;99291.38;;;19.79;50.00
12963;BME280;6546;49.882;8.666;2023-04-23T09:54:46;99283.06;;;19.87;50.55
12963;BME280;6546;49.882;8.666;2023-04-23T09:57:13;99282.09;;;19.93;50.52
12963;BME280;6546;49.882;8.666;2023-04-23T09:59:41;99284.78;;;19.77;48.43
12963;BME280;6546;49.882;8.666;2023-04-23T10:02:09;99282.00;;;19.67;50.43
12963;BME280;6546;49.882;8.666;2023-04-23T10:04:37;99280.56;;;19.76;49.64
12963;BME280;6546;49.882;8.666;2023-04-23T10:07:05;99287.72;;;19.80;48.80
12963;BME280;6546;49.882;8.666;2023-04-23T10:09:33;99268.22;;;19.76;49.92
12963;BME280;6546;49.882;8.666;2023-04-23T10:12:01;99272.63;;;19.71;50.29
12963;BME280;6546;49.882;8.666;2023-04-23T10:14:28;99257.94;;;19.58;49.59
12963;BME280;6546;49.882;8.666;2023-04-23T10:16:58;99267.22;;;19.44;48.55
12963;BME280;6546;49.882;8.666;2023-04-23T10:19:26;99267.69;;;19.41;50.42
12963;BME280;6546;49.882;8.666;2023-04-23T10:21:55;99265.69;;;19.48;50.50
12963;BME280;6546;49.882;8.666;2023-04-23T10:24:25;99264.66;;;19.49;49.36
12963;BME280;6546;49.882;8.666;2023-04-23T10:26:55;99264.97;;;19.53;48.33
12963;BME280;6546;49.882;8.666;2023-04-23T10:29:27;99265.69;;;19.48;47.07
12963;BME280;6546;49.882;8.666;2023-04-23T10:31:55;99264.00;;;19.42;48.53
12963;BME280;6546;49.882;8.666;2023-04-23T10:34:25;99262.50;;;19.46;47.63
12963;BME280;6546;49.882;8.666;2023-04-23T10:36:53;99254.16;;;19.49;47.73
12963;BME280;6546;49.882;8.666;2023-04-23T10:39:21;99259.56;;;19.59;47.35
12963;BME280;6546;49.882;8.666;2023-04-23T10:41:49;99255.25;;;19.70;45.72
12963;BME280;6546;49.882;8.666;2023-04-23T10:44:19;99262.88;;;19.71;47.85
12963;BME280;6546;49.882;8.666;2023-04-23T10:46:52;99252.31;;;19.66;47.66
12963;BME280;6546;49.882;8.666;2023-04-23T10:49:22;99247.94;;;19.55;47.88
12963;BME280;6546;49.882;8.666;2023-04-23T10:51:57;99243.00;;;19.42;48.51
12963;BME280;6546;49.882;8.666;2023-04-23T10:54:27;99241.09;;;19.37;47.80
12963;BME280;6546;49.882;8.666;2023-04-23T10:56:57;99235.41;;;19.29;46.68
12963;BME280;6546;49.882;8.666;2023-04-23T10:59:26;99233.59;;;19.29;48.71
12963;BME280;6546;49.882;8.666;2023-04-23T11:01:55;99219.38;;;19.25;47.89
12963;BME280;6546;49.882;8.666;2023-04-23T11:04:25;99219.06;;;19.22;48.48
12963;BME280;6546;49.882;8.666;2023-04-23T11:06:55;99217.84;;;19.29;48.72
12963;BME280;6546;49.882;8.666;2023-04-23T11:09:39;99225.00;;;19.34;48.30
12963;BME280;6546;49.882;8.666;2023-04-23T11:12:07;99221.50;;;19.45;48.03
12963;BME280;6546;49.882;8.666;2023-04-23T11:14:40;99222.41;;;19.51;46.84
12963;BME280;6546;49.882;8.666;2023-04-23T11:17:10;99211.00;;;19.45;46.66
12963;BME280;6546;49.882;8.666;2023-04-23T11:19:38;99211.28;;;19.44;45.52
12963;BME280;6546;49.882;8.666;2023-04-23T11:22:12;99211.94;;;19.39;46.49
12963;BME280;6546;49.882;8.666;2023-04-23T11:24:40;99208.22;;;19.35;46.42
12963;BME280;6546;49.882;8.666;2023-04-23T11:27:09;99198.44;;;19.30;45.83
12963;BME280;6546;49.882;8.666;2023-04-23T11:29:37;99200.41;;;19.23;46.74
12963;BME280;6546;49.882;8.666;2023-04-23T11:32:04;99201.16;;;19.19;45.03
12963;BME280;6546;49.882;8.666;2023-04-23T11:34:35;99192.31;;;19.08;45.72
12963;BME280;6546;49.882;8.666;2023-04-23T11:37:01;99176.03;;;19.06;46.06
12963;BME280;6546;49.882;8.666;2023-04-23T11:39:30;99180.06;;;19.14;47.01
12963;BME280;6546;49.882;8.666;2023-04-23T11:41:57;99174.03;;;19.13;45.89
12963;BME280;6546;49.882;8.666;2023-04-23T11:44:27;99157.94;;;19.10;46.60
12963;BME280;6546;49.882;8.666;2023-04-23T11:46:53;99167.53;;;19.16;43.99
12963;BME280;6546;49.882;8.666;2023-04-23T11:49:20;99162.28;;;19.16;45.42
12963;BME280;6546;49.882;8.666;2023-04-23T11:51:47;99175.47;;;19.21;45.83
12963;BME280;6546;49.882;8.666;2023-04-23T11:54:13;99163.50;;;19.30;47.10
12963;BME280;6546;49.882;8.666;2023-04-23T11:56:41;99164.22;;;19.42;46.41
12963;BME280;6546;49.882;8.666;2023-04-23T11:59:08;99146.31;;;19.39;45.03
12963;BME280;6546;49.882;8.666;2023-04-23T12:01:42;99158.81;;;19.49;45.53
12963;BME280;6546;49.882;8.666;2023-04-23T12:04:10;99143.38;;;19.52;45.17
12963;BME280;6546;49.882;8.666;2023-04-23T12:06:38;99147.38;;;19.55;45.26
12963;BME280;6546;49.882;8.666;2023-04-23T12:09:05;99138.25;;;19.62;45.51
12963;BME280;6546;49.882;8.666;2023-04-23T12:11:33;99142.06;;;19.71;44.63
12963;BME280;6546;49.882;8.666;2023-04-23T12:14:01;99132.53;;;19.65;43.31
12963;BME280;6546;49.882;8.666;2023-04-23T12:16:36;99142.53;;;19.68;45.16
12963;BME280;6546;49.882;8.666;2023-04-23T12:19:06;99132.03;;;19.68;43.59
12963;BME280;6546;49.882;8.666;2023-04-23T12:21:34;99130.69;;;19.66;43.71
12963;BME280;6546;49.882;8.666;2023-04-23T12:24:02;99126.66;;;19.58;43.59
12963;BME280;6546;49.882;8.666;2023-04-23T12:26:30;99127.22;;;19.60;43.14
12963;BME280;6546;49.882;8.666;2023-04-23T12:28:58;99113.34;;;19.65;39.13
12963;BME280;6546;49.882;8.666;2023-04-23T12:31:28;99105.53;;;19.70;42.30
12963;BME280;6546;49.882;8.666;2023-04-23T12:34:01;99100.59;;;19.73;40.60
12963;BME280;6546;49.882;8.666;2023-04-23T12:36:29;99105.59;;;19.75;40.94
12963;BME280;6546;49.882;8.666;2023-04-23T12:39:22;99101.09;;;19.70;40.10
12963;BME280;6546;49.882;8.666;2023-04-23T12:41:50;99096.31;;;19.67;38.79
12963;BME280;6546;49.882;8.666;2023-04-23T12:44:18;99086.84;;;19.66;40.99
12963;BME280;6546;49.882;8.666;2023-04-23T12:46:48;99088.75;;;19.71;41.60
12963;BME280;6546;49.882;8.666;2023-04-23T12:49:15;99078.69;;;19.68;39.81
12963;BME280;6546;49.882;8.666;2023-04-23T12:51:42;99088.94;;;19.64;41.09
12963;BME280;6546;49.882;8.666;2023-04-23T12:54:09;99076.22;;;19.56;38.00
12963;BME280;6546;49.882;8.666;2023-04-23T12:56:36;99076.09;;;19.46;40.32
12963;BME280;6546;49.882;8.666;2023-04-23T12:59:03;99068.84;;;19.36;39.01
12963;BME280;6546;49.882;8.666;2023-04-23T13:01:29;99061.94;;;19.30;40.99
12963;BME280;6546;49.882;8.666;2023-04-23T13:03:58;99061.75;;;19.37;40.15
12963;BME280;6546;49.882;8.666;2023-04-23T13:06:24;99046.16;;;19.47;41.10
12963;BME280;6546;49.882;8.666;2023-04-23T13:08:53;99049.63;;;19.53;40.14
12963;BME280;6546;49.882;8.666;2023-04-23T13:11:21;99048.78;;;19.47;37.42